Relevés horaires Beauvechain (Belgique)


Relevés horaires à Beauvechain - Jeudi 04 Avr. 2019
Heure UTC1 Température [°C] Vent [km/h] Hum. [%] Pres.4 [hPa] Visi. [Km] Nébu. [octa] Préc.5 [mm] Cond.
2m. Res. Ros. Dir.2 Vit. Moy. Raf.3
23:00 5.5 5.5 0.5 NNO 1.9 -- 5.6 70 1005(0.8/3h) 20 -- -- --
22:00 6.0 6.0 0.5 S 3.7 -- 5.6 68 1004.7(0.9/3h) 20 -- -- --
21:00 5.8 5.8 1.5 SSE 3.7 -- 5.6 74 1004.2(1.3/3h) 20 -- -- --
20:00 6.5 6.5 1.8 NNO 3.7 -- 5.6 72 1004(1.7/3h) 20 -- -- --
19:00 7.3 7.3 1.4 NNO 1.9 -- 5.6 66 1003.6(1.6/3h) 20 -- -- --
18:00 8.2 8.2 1.9 NNO 1.9 -- 9.3 64 1002.6(1.7/3h) 20 -- -- --
17:00 9.2 9.2 0.7 SE 3.7 -- 7.4 55 1002.1(1.1/3h) 20 -- -- --
16:00 9.1 8.6 0.5 SE 5.6 -- 7.4 55 1001.7(1.2/3h) 20 5/8 -- --
15:00 9.9 9.9 1.4 SE 3.7 -- 9.3 55 1000.7(0.4/3h) 20 5/8 -- --
14:00 9.7 9.7 1.9 ESE 3.7 -- 7.4 58 1000.8(0.7/3h) 20 7/8 -- --
13:00 8.8 8.8 1.1 ESE 3.7 -- 7.4 58 1000.3(0.4/3h) 20 7/8 -- --
12:00 8.6 8.6 1.4 E 3.7 -- 7.4 60 1000.3(0.5/3h) 20 6/8 -- --
11:00 8.0 8.0 3.1 NNO 1.9 -- 5.6 71 1000.2(0.7/3h) 20 6/8 -- --
10:00 7.9 7.9 3.1 NNO 1.9 -- 5.6 72 1000.1(0.8/3h) 20 5/8 -- --
09:00 6.1 6.1 2.7 S 3.7 -- 7.4 79 1000(0.9/3h) 20 7/8 -- --
08:00 5.2 5.2 2.7 S 3.7 -- 5.6 84 999.6(0.9/3h) 20 7/8 -- --
07:00 4.0 4.0 1.9 NNO 1.9 -- 1.9 86 999.4(0.6/3h) 20 7/8 -- --
06:00 3.2 3.2 1.4 NNO 1.9 -- 11.1 88 999.1(0.2/3h) 20 7/8 -- --
05:00 3.1 3.1 1.1 NNO 1.9 -- 7.4 87 998.8(-0.5/3h) 20 -- -- --
04:00 3.2 1.8 1.2 S 5.6 -- 7.4 87 998.8(-1.0/3h) 20 -- -- --
03:00 2.9 2.9 1.0 NNO 1.9 -- 11.1 87 998.9(-1.2/3h) 20 -- -- --
02:00 3.2 1.2 1.2 S 7.4 -- 11.1 87 999.3(-1.4/3h) 20 -- -- --
01:00 2.8 1.3 0.9 S 5.6 -- 9.3 87 999.9(-1.1/3h) 20 -- -- --
00:00 2.7 1.2 0.9 S 5.6 -- 13.0 88 1000.1(-0.8/3h) 20 -- -- --

1 Coordinated Universal Time. Actuellement il est 09:00 locale et 08:00 UTC.

2 Le vent souffle depuis la direction indiquée vers la direction oposée.

3 Les rafales max. sont disponible 40 min après l'heure du relevé.

4 Pour les stations d'altitude (plus de 600m) le géopotentiel du niveau le plus proche de la pression obligatoire est indiqué.

5 Les stations disposant d'un diffuseur peuvent indiquer "trace". Cela signifie que des précipitations ont touchés le sol mais que la quantité est inférieure à 0.1 mm.

Récapitulatif de la journée
Température [°C] Vent [km/h] Ensoleillement4 [h] Precipitations totale5 [mm] Pression [Hpa]
Min1 Max.2 Moy.3 Max. Min Max.
2.6 10.1 0 13.0 0 h 0 min 0 998.8 1005.0

1 Température minimale relevée entre 18:00 UTC la veille et 18:00 UTC le jour donné.

2 Température maximale relevée entre 06:00 UTC le jour donné et 06:00 UTC le lendemain.

3 Vent moyen de la journée basé sur les relevés horaires.

4 Ensoleillement en heures relevé entre 06:00 UTC la veille et 06:00 UTC le jour donné.

5 Précipitations totales tombées entre 06:00 UTC la jour donné et 06:00 UTC le lendemain.

Graphiques horaires